Time,TemperatureF,DewpointF,PressureIn,WindDirection,WindDirectionDegrees,WindSpeedMPH,WindSpeedGustMPH,Humidity,HourlyPrecipIn,Conditions,Clouds,dailyrainin,SoftwareType,DateUTC
2013-04-19 00:02:00,74.0,66.0,-100.00,ENE,58,6.0,10.0,75,0.00,,,0.00,,2013-04-19 10:02:00,
2013-04-19 00:13:00,74.0,66.0,-100.00,ENE,58,6.0,10.0,75,0.00,,,0.00,,2013-04-19 10:13:00,
2013-04-19 00:23:00,74.0,66.0,-100.00,ENE,58,6.0,10.0,75,0.00,,,0.00,,2013-04-19 10:23:00,
2013-04-19 00:33:00,74.0,66.0,-100.00,ENE,58,6.0,10.0,75,0.00,,,0.00,,2013-04-19 10:33:00,
2013-04-19 00:41:00,73.0,66.0,-100.00,NE,40,4.0,10.0,78,0.00,,,0.00,,2013-04-19 10:41:00,
2013-04-19 01:02:00,73.0,66.0,-100.00,NE,40,4.0,10.0,78,0.00,,,0.00,,2013-04-19 11:02:00,
2013-04-19 01:11:00,73.0,66.0,-100.00,NE,40,4.0,10.0,78,0.00,,,0.00,,2013-04-19 11:11:00,
2013-04-19 01:22:00,73.0,66.0,-100.00,NE,40,4.0,10.0,78,0.00,,,0.00,,2013-04-19 11:22:00,
2013-04-19 01:32:00,73.0,66.0,-100.00,NE,40,4.0,10.0,78,0.00,,,0.00,,2013-04-19 11:32:00,
2013-04-19 01:41:00,72.0,65.0,-100.00,NE,37,6.0,9.0,78,0.00,,,0.00,,2013-04-19 11:41:00,
2013-04-19 02:02:00,72.0,65.0,-100.00,NE,37,6.0,9.0,78,0.00,,,0.00,,2013-04-19 12:02:00,
2013-04-19 02:12:00,72.0,65.0,-100.00,NE,37,6.0,9.0,78,0.00,,,0.00,,2013-04-19 12:12:00,
2013-04-19 02:22:00,72.0,65.0,-100.00,NE,37,6.0,9.0,78,0.00,,,0.00,,2013-04-19 12:22:00,
2013-04-19 02:32:00,72.0,65.0,-100.00,NE,37,6.0,9.0,78,0.00,,,0.00,,2013-04-19 12:32:00,
2013-04-19 02:41:00,70.0,63.0,-100.00,WNW,294,3.0,9.0,78,0.00,,,0.00,,2013-04-19 12:41:00,
2013-04-19 03:01:00,70.0,63.0,-100.00,WNW,294,3.0,9.0,78,0.00,,,0.00,,2013-04-19 13:01:00,
2013-04-19 03:11:00,70.0,63.0,-100.00,WNW,294,3.0,9.0,78,0.00,,,0.00,,2013-04-19 13:11:00,
2013-04-19 03:21:00,70.0,63.0,-100.00,WNW,294,3.0,9.0,78,0.00,,,0.00,,2013-04-19 13:21:00,
2013-04-19 03:32:00,70.0,63.0,-100.00,WNW,294,3.0,9.0,78,0.00,,,0.00,,2013-04-19 13:32:00,
2013-04-19 03:41:00,69.0,63.0,-100.00,NW,326,5.0,7.0,82,0.00,,,0.00,,2013-04-19 13:41:00,
2013-04-19 04:01:00,69.0,63.0,-100.00,NW,326,5.0,7.0,82,0.00,,,0.00,,2013-04-19 14:01:00,
2013-04-19 04:11:00,69.0,63.0,-100.00,NW,326,5.0,7.0,82,0.00,,,0.00,,2013-04-19 14:11:00,
2013-04-19 04:21:00,69.0,63.0,-100.00,NW,326,5.0,7.0,82,0.00,,,0.00,,2013-04-19 14:21:00,
2013-04-19 04:32:00,69.0,63.0,-100.00,NW,326,5.0,7.0,82,0.00,,,0.00,,2013-04-19 14:32:00,
2013-04-19 04:41:00,71.0,65.0,-100.00,NNW,339,5.0,8.0,82,0.00,,,0.00,,2013-04-19 14:41:00,
2013-04-19 05:01:00,71.0,65.0,-100.00,NNW,339,5.0,8.0,82,0.00,,,0.00,,2013-04-19 15:01:00,
2013-04-19 05:12:00,71.0,65.0,-100.00,NNW,339,5.0,8.0,82,0.00,,,0.00,,2013-04-19 15:12:00,
2013-04-19 05:21:00,71.0,65.0,-100.00,NNW,339,5.0,8.0,82,0.00,,,0.00,,2013-04-19 15:21:00,
2013-04-19 05:33:00,71.0,65.0,-100.00,NNW,339,5.0,8.0,82,0.00,,,0.00,,2013-04-19 15:33:00,
2013-04-19 05:41:00,71.0,64.0,-100.00,NNW,347,3.0,7.0,79,0.00,,,0.00,,2013-04-19 15:41:00,
2013-04-19 06:03:00,71.0,64.0,-100.00,NNW,347,3.0,7.0,79,0.00,,,0.00,,2013-04-19 16:03:00,
2013-04-19 06:12:00,71.0,64.0,-100.00,NNW,347,3.0,7.0,79,0.00,,,0.00,,2013-04-19 16:12:00,
2013-04-19 06:23:00,71.0,64.0,-100.00,NNW,347,3.0,7.0,79,0.00,,,0.00,,2013-04-19 16:23:00,
2013-04-19 06:32:00,71.0,64.0,-100.00,NNW,347,3.0,7.0,79,0.00,,,0.00,,2013-04-19 16:32:00,
2013-04-19 06:41:00,71.0,65.0,-100.00,NNW,339,5.0,8.0,81,0.00,,,0.00,,2013-04-19 16:41:00,
2013-04-19 07:02:00,71.0,65.0,-100.00,NNW,339,5.0,8.0,81,0.00,,,0.00,,2013-04-19 17:02:00,
2013-04-19 07:12:00,71.0,65.0,-100.00,NNW,339,5.0,8.0,81,0.00,,,0.00,,2013-04-19 17:12:00,
2013-04-19 07:21:00,71.0,65.0,-100.00,NNW,339,5.0,8.0,81,0.00,,,0.00,,2013-04-19 17:21:00,
2013-04-19 07:32:00,71.0,65.0,-100.00,NNW,339,5.0,8.0,81,0.00,,,0.00,,2013-04-19 17:32:00,
2013-04-19 07:41:00,74.0,67.0,-100.00,NNE,20,6.0,11.0,80,0.00,,,0.00,,2013-04-19 17:41:00,
2013-04-19 08:01:00,74.0,67.0,-100.00,NNE,20,6.0,11.0,80,0.00,,,0.00,,2013-04-19 18:01:00,
2013-04-19 08:13:00,74.0,67.0,-100.00,NNE,20,6.0,11.0,80,0.00,,,0.00,,2013-04-19 18:13:00,
2013-04-19 08:22:00,74.0,67.0,-100.00,NNE,20,6.0,11.0,80,0.00,,,0.00,,2013-04-19 18:22:00,
2013-04-19 08:33:00,74.0,67.0,-100.00,NNE,20,6.0,11.0,80,0.00,,,0.00,,2013-04-19 18:33:00,
2013-04-19 08:41:00,77.0,69.0,-100.00,ENE,65,8.0,13.0,76,0.00,,,0.00,,2013-04-19 18:41:00,
2013-04-19 09:01:00,77.0,69.0,-100.00,ENE,65,8.0,13.0,76,0.00,,,0.00,,2013-04-19 19:01:00,
2013-04-19 09:11:00,77.0,69.0,-100.00,ENE,65,8.0,13.0,76,0.00,,,0.00,,2013-04-19 19:11:00,
2013-04-19 09:21:00,77.0,69.0,-100.00,ENE,65,8.0,13.0,76,0.00,,,0.00,,2013-04-19 19:21:00,
2013-04-19 09:31:00,77.0,69.0,-100.00,ENE,65,8.0,13.0,76,0.00,,,0.00,,2013-04-19 19:31:00,
2013-04-19 09:41:00,78.0,69.0,-100.00,East,91,9.0,14.0,75,0.00,,,0.00,,2013-04-19 19:41:00,
2013-04-19 10:01:00,78.0,69.0,-100.00,East,91,9.0,14.0,75,0.00,,,0.00,,2013-04-19 20:01:00,
2013-04-19 10:11:00,78.0,69.0,-100.00,East,91,9.0,14.0,75,0.00,,,0.00,,2013-04-19 20:11:00,
2013-04-19 10:22:00,78.0,69.0,-100.00,East,91,9.0,14.0,75,0.00,,,0.00,,2013-04-19 20:22:00,
2013-04-19 10:32:00,78.0,69.0,-100.00,East,91,9.0,14.0,75,0.00,,,0.00,,2013-04-19 20:32:00,
2013-04-19 10:41:00,77.0,70.0,-100.00,East,86,10.0,16.0,78,0.00,,,0.00,,2013-04-19 20:41:00,
2013-04-19 11:01:00,77.0,70.0,-100.00,East,86,10.0,16.0,78,0.00,,,0.00,,2013-04-19 21:01:00,
2013-04-19 11:11:00,77.0,70.0,-100.00,East,86,10.0,16.0,78,0.00,,,0.00,,2013-04-19 21:11:00,
2013-04-19 11:21:00,77.0,70.0,-100.00,East,86,10.0,16.0,78,0.00,,,0.00,,2013-04-19 21:21:00,
2013-04-19 11:32:00,77.0,70.0,-100.00,East,86,10.0,16.0,78,0.00,,,0.00,,2013-04-19 21:32:00,
2013-04-19 11:41:00,75.0,67.0,-100.00,East,81,10.0,17.0,76,0.01,,,0.01,,2013-04-19 21:41:00,
2013-04-19 12:02:00,75.0,67.0,-100.00,East,81,10.0,17.0,76,0.01,,,0.01,,2013-04-19 22:02:00,
2013-04-19 12:12:00,75.0,67.0,-100.00,East,81,10.0,17.0,76,0.01,,,0.01,,2013-04-19 22:12:00,
2013-04-19 12:22:00,75.0,67.0,-100.00,East,81,10.0,17.0,76,0.01,,,0.01,,2013-04-19 22:22:00,
2013-04-19 12:33:00,75.0,67.0,-100.00,East,81,10.0,17.0,76,0.01,,,0.01,,2013-04-19 22:33:00,
2013-04-19 12:41:00,77.0,72.0,-100.00,East,81,9.0,14.0,84,0.01,,,0.02,,2013-04-19 22:41:00,
2013-04-19 13:02:00,77.0,72.0,-100.00,East,81,9.0,14.0,84,0.01,,,0.02,,2013-04-19 23:02:00,
2013-04-19 13:11:00,77.0,72.0,-100.00,East,81,9.0,14.0,84,0.01,,,0.02,,2013-04-19 23:11:00,
2013-04-19 13:22:00,77.0,72.0,-100.00,East,81,9.0,14.0,84,0.01,,,0.02,,2013-04-19 23:22:00,
2013-04-19 13:32:00,77.0,72.0,-100.00,East,81,9.0,14.0,84,0.01,,,0.02,,2013-04-19 23:32:00,
2013-04-19 13:41:00,79.0,71.0,-100.00,East,89,11.0,16.0,77,0.00,,,0.02,,2013-04-19 23:41:00,
2013-04-19 14:02:00,79.0,71.0,-100.00,East,89,11.0,16.0,77,0.00,,,0.02,,2013-04-20 00:02:00,
2013-04-19 14:12:00,79.0,71.0,-100.00,East,89,11.0,16.0,77,0.00,,,0.02,,2013-04-20 00:12:00,
2013-04-19 14:21:00,79.0,71.0,-100.00,East,89,11.0,16.0,77,0.00,,,0.02,,2013-04-20 00:21:00,
2013-04-19 14:31:00,79.0,71.0,-100.00,East,89,11.0,16.0,77,0.00,,,0.02,,2013-04-20 00:31:00,
2013-04-19 14:41:00,80.0,68.0,-100.00,East,97,11.0,19.0,68,0.00,,,0.02,,2013-04-20 00:41:00,
2013-04-19 15:01:00,80.0,68.0,-100.00,East,97,11.0,19.0,68,0.00,,,0.02,,2013-04-20 01:01:00,
2013-04-19 15:11:00,80.0,68.0,-100.00,East,97,11.0,19.0,68,0.00,,,0.02,,2013-04-20 01:11:00,
2013-04-19 15:21:00,80.0,68.0,-100.00,East,97,11.0,19.0,68,0.00,,,0.02,,2013-04-20 01:21:00,
2013-04-19 15:32:00,80.0,68.0,-100.00,East,97,11.0,19.0,68,0.00,,,0.02,,2013-04-20 01:32:00,
2013-04-19 15:41:00,80.0,69.0,-100.00,East,89,9.0,18.0,69,0.00,,,0.02,,2013-04-20 01:41:00,
2013-04-19 16:01:00,80.0,69.0,-100.00,East,89,9.0,18.0,69,0.00,,,0.02,,2013-04-20 02:01:00,
2013-04-19 16:11:00,80.0,69.0,-100.00,East,89,9.0,18.0,69,0.00,,,0.02,,2013-04-20 02:11:00,
2013-04-19 16:21:00,80.0,69.0,-100.00,East,89,9.0,18.0,69,0.00,,,0.02,,2013-04-20 02:21:00,
2013-04-19 16:32:00,80.0,69.0,-100.00,East,89,9.0,18.0,69,0.00,,,0.02,,2013-04-20 02:32:00,
2013-04-19 16:41:00,79.0,68.0,-100.00,East,88,9.0,19.0,70,0.00,,,0.02,,2013-04-20 02:41:00,
2013-04-19 17:01:00,79.0,68.0,-100.00,East,88,9.0,19.0,70,0.00,,,0.02,,2013-04-20 03:01:00,
2013-04-19 17:11:00,79.0,68.0,-100.00,East,88,9.0,19.0,70,0.00,,,0.02,,2013-04-20 03:11:00,
2013-04-19 17:21:00,79.0,68.0,-100.00,East,88,9.0,19.0,70,0.00,,,0.02,,2013-04-20 03:21:00,
2013-04-19 17:33:00,79.0,68.0,-100.00,East,88,9.0,19.0,70,0.00,,,0.02,,2013-04-20 03:33:00,
2013-04-19 17:41:00,78.0,67.0,-100.00,East,92,9.0,17.0,69,0.00,,,0.02,,2013-04-20 03:41:00,
2013-04-19 18:03:00,78.0,67.0,-100.00,East,92,9.0,17.0,69,0.00,,,0.02,,2013-04-20 04:03:00,
2013-04-19 18:12:00,78.0,67.0,-100.00,East,92,9.0,17.0,69,0.00,,,0.02,,2013-04-20 04:12:00,
2013-04-19 18:23:00,78.0,67.0,-100.00,East,92,9.0,17.0,69,0.00,,,0.02,,2013-04-20 04:23:00,
2013-04-19 18:32:00,78.0,67.0,-100.00,East,92,9.0,17.0,69,0.00,,,0.02,,2013-04-20 04:32:00,
2013-04-19 18:41:00,76.0,66.0,-100.00,East,88,9.0,21.0,72,0.00,,,0.02,,2013-04-20 04:41:00,
2013-04-19 19:02:00,76.0,66.0,-100.00,East,88,9.0,21.0,72,0.00,,,0.02,,2013-04-20 05:02:00,
2013-04-19 19:12:00,76.0,66.0,-100.00,East,88,9.0,21.0,72,0.00,,,0.02,,2013-04-20 05:12:00,
2013-04-19 19:21:00,76.0,66.0,-100.00,East,88,9.0,21.0,72,0.00,,,0.02,,2013-04-20 05:21:00,
2013-04-19 19:32:00,76.0,66.0,-100.00,East,88,9.0,21.0,72,0.00,,,0.02,,2013-04-20 05:32:00,
2013-04-19 19:41:00,75.0,66.0,-100.00,East,85,6.0,14.0,74,0.00,,,0.02,,2013-04-20 05:41:00,
2013-04-19 20:01:00,75.0,66.0,-100.00,East,85,6.0,14.0,74,0.00,,,0.02,,2013-04-20 06:01:00,
2013-04-19 20:12:00,75.0,66.0,-100.00,East,85,6.0,14.0,74,0.00,,,0.02,,2013-04-20 06:12:00,
2013-04-19 20:21:00,75.0,66.0,-100.00,East,85,6.0,14.0,74,0.00,,,0.02,,2013-04-20 06:21:00,
2013-04-19 20:31:00,75.0,66.0,-100.00,East,85,6.0,14.0,74,0.00,,,0.02,,2013-04-20 06:31:00,
2013-04-19 20:41:00,75.0,67.0,-100.00,NE,46,5.0,11.0,76,0.00,,,0.02,,2013-04-20 06:41:00,
2013-04-19 21:01:00,75.0,67.0,-100.00,NE,46,5.0,11.0,76,0.00,,,0.02,,2013-04-20 07:01:00,
2013-04-19 21:11:00,75.0,67.0,-100.00,NE,46,5.0,11.0,76,0.00,,,0.02,,2013-04-20 07:11:00,
2013-04-19 21:21:00,75.0,67.0,-100.00,NE,46,5.0,11.0,76,0.00,,,0.02,,2013-04-20 07:21:00,
2013-04-19 21:32:00,75.0,67.0,-100.00,NE,46,5.0,11.0,76,0.00,,,0.02,,2013-04-20 07:32:00,
2013-04-19 21:41:00,75.0,67.0,-100.00,NE,47,4.0,7.0,76,0.00,,,0.02,,2013-04-20 07:41:00,
2013-04-19 22:01:00,75.0,67.0,-100.00,NE,47,4.0,7.0,76,0.00,,,0.02,,2013-04-20 08:01:00,
2013-04-19 22:11:00,75.0,67.0,-100.00,NE,47,4.0,7.0,76,0.00,,,0.02,,2013-04-20 08:11:00,
2013-04-19 22:21:00,75.0,67.0,-100.00,NE,47,4.0,7.0,76,0.00,,,0.02,,2013-04-20 08:21:00,
2013-04-19 22:31:00,75.0,67.0,-100.00,NE,47,4.0,7.0,76,0.00,,,0.02,,2013-04-20 08:31:00,
2013-04-19 22:41:00,74.0,67.0,-100.00,NNE,16,4.0,7.0,78,0.00,,,0.02,,2013-04-20 08:41:00,
2013-04-19 23:01:00,74.0,67.0,-100.00,NNE,16,4.0,7.0,78,0.00,,,0.02,,2013-04-20 09:01:00,
2013-04-19 23:12:00,74.0,67.0,-100.00,NNE,16,4.0,7.0,78,0.00,,,0.02,,2013-04-20 09:12:00,
2013-04-19 23:21:00,74.0,67.0,-100.00,NNE,16,4.0,7.0,78,0.00,,,0.02,,2013-04-20 09:21:00,
2013-04-19 23:32:00,74.0,67.0,-100.00,NNE,16,4.0,7.0,78,0.00,,,0.02,,2013-04-20 09:32:00,
2013-04-19 23:41:00,74.0,67.0,-100.00,ESE,122,4.0,6.0,79,0.00,,,0.02,,2013-04-20 09:41:00,